sensor_id;sensor_type;location;lat;lon;timestamp;pressure;altitude;pressure_sealevel;temperature;humidity
63916;BME280;50094;51.356;-0.196;2023-02-13T00:00:32;102808.35;;;23.65;24.79
63916;BME280;50094;51.356;-0.196;2023-02-13T00:02:59;102803.39;;;23.87;24.78
63916;BME280;50094;51.356;-0.196;2023-02-13T00:05:27;102803.13;;;23.88;24.76
63916;BME280;50094;51.356;-0.196;2023-02-13T00:07:54;102798.90;;;23.88;24.75
63916;BME280;50094;51.356;-0.196;2023-02-13T00:10:21;102796.84;;;24.12;24.74
63916;BME280;50094;51.356;-0.196;2023-02-13T00:12:48;102791.09;;;23.90;24.71
63916;BME280;50094;51.356;-0.196;2023-02-13T00:15:15;102788.48;;;23.84;24.73
63916;BME280;50094;51.356;-0.196;2023-02-13T00:17:43;102789.54;;;24.06;24.74
63916;BME280;50094;51.356;-0.196;2023-02-13T00:20:11;102788.71;;;23.81;24.73
63916;BME280;50094;51.356;-0.196;2023-02-13T00:22:38;102782.99;;;23.77;24.73
63916;BME280;50094;51.356;-0.196;2023-02-13T00:25:07;102787.33;;;23.97;24.74
63916;BME280;50094;51.356;-0.196;2023-02-13T00:27:35;102781.52;;;23.92;24.74
63916;BME280;50094;51.356;-0.196;2023-02-13T00:30:03;102778.35;;;23.69;24.75
63916;BME280;50094;51.356;-0.196;2023-02-13T00:32:30;102779.78;;;23.47;24.76
63916;BME280;50094;51.356;-0.196;2023-02-13T00:34:57;102781.26;;;23.70;24.75
63916;BME280;50094;51.356;-0.196;2023-02-13T00:37:24;102780.42;;;23.73;24.73
63916;BME280;50094;51.356;-0.196;2023-02-13T00:39:52;102779.66;;;23.88;24.74
63916;BME280;50094;51.356;-0.196;2023-02-13T00:42:20;102781.58;;;23.91;24.73
63916;BME280;50094;51.356;-0.196;2023-02-13T00:44:46;102780.10;;;23.68;24.72
63916;BME280;50094;51.356;-0.196;2023-02-13T00:47:13;102779.67;;;23.68;24.69
63916;BME280;50094;51.356;-0.196;2023-02-13T00:49:40;102775.99;;;23.63;24.70
63916;BME280;50094;51.356;-0.196;2023-02-13T00:52:07;102776.19;;;23.58;24.70
63916;BME280;50094;51.356;-0.196;2023-02-13T00:54:34;102778.44;;;23.62;24.69
63916;BME280;50094;51.356;-0.196;2023-02-13T00:57:01;102776.68;;;23.81;24.70
63916;BME280;50094;51.356;-0.196;2023-02-13T00:59:29;102770.63;;;23.59;24.70
63916;BME280;50094;51.356;-0.196;2023-02-13T01:01:56;102769.62;;;23.80;24.70
63916;BME280;50094;51.356;-0.196;2023-02-13T01:04:23;102768.74;;;23.80;24.69
63916;BME280;50094;51.356;-0.196;2023-02-13T01:06:50;102770.14;;;23.59;24.66
63916;BME280;50094;51.356;-0.196;2023-02-13T01:09:17;102774.79;;;23.78;24.66
63916;BME280;50094;51.356;-0.196;2023-02-13T01:11:44;102773.74;;;23.78;24.64
63916;BME280;50094;51.356;-0.196;2023-02-13T01:14:11;102779.18;;;23.53;24.64
63916;BME280;50094;51.356;-0.196;2023-02-13T01:16:38;102776.23;;;23.69;24.65
63916;BME280;50094;51.356;-0.196;2023-02-13T01:19:05;102777.53;;;23.68;24.65
63916;BME280;50094;51.356;-0.196;2023-02-13T01:21:31;102778.32;;;23.47;24.65
63916;BME280;50094;51.356;-0.196;2023-02-13T01:24:02;102779.46;;;23.68;24.65
63916;BME280;50094;51.356;-0.196;2023-02-13T01:26:30;102781.84;;;23.67;24.65
63916;BME280;50094;51.356;-0.196;2023-02-13T01:28:57;102777.85;;;23.63;24.65
63916;BME280;50094;51.356;-0.196;2023-02-13T01:31:24;102774.74;;;23.61;24.67
63916;BME280;50094;51.356;-0.196;2023-02-13T01:33:51;102775.04;;;23.65;24.67
63916;BME280;50094;51.356;-0.196;2023-02-13T01:36:19;102771.48;;;23.66;24.67
63916;BME280;50094;51.356;-0.196;2023-02-13T01:38:46;102774.61;;;23.64;24.67
63916;BME280;50094;51.356;-0.196;2023-02-13T01:41:13;102776.02;;;23.67;24.65
63916;BME280;50094;51.356;-0.196;2023-02-13T01:43:46;102769.05;;;23.68;24.64
63916;BME280;50094;51.356;-0.196;2023-02-13T01:46:16;102773.64;;;23.66;24.64
63916;BME280;50094;51.356;-0.196;2023-02-13T01:48:44;102769.50;;;23.65;24.63
63916;BME280;50094;51.356;-0.196;2023-02-13T01:51:16;102766.37;;;23.63;24.63
63916;BME280;50094;51.356;-0.196;2023-02-13T01:53:47;102762.41;;;23.61;24.63
63916;BME280;50094;51.356;-0.196;2023-02-13T01:56:20;102761.14;;;23.40;24.62
63916;BME280;50094;51.356;-0.196;2023-02-13T01:58:52;102762.23;;;23.62;24.62
63916;BME280;50094;51.356;-0.196;2023-02-13T02:01:21;102765.87;;;23.60;24.63
63916;BME280;50094;51.356;-0.196;2023-02-13T02:03:52;102765.46;;;23.38;24.61
63916;BME280;50094;51.356;-0.196;2023-02-13T02:06:25;102765.23;;;23.58;24.60
63916;BME280;50094;51.356;-0.196;2023-02-13T02:08:55;102763.05;;;23.57;24.61
63916;BME280;50094;51.356;-0.196;2023-02-13T02:11:30;102758.24;;;23.57;24.60
63916;BME280;50094;51.356;-0.196;2023-02-13T02:14:00;102752.04;;;23.58;24.59
63916;BME280;50094;51.356;-0.196;2023-02-13T02:16:28;102751.72;;;23.84;24.59
63916;BME280;50094;51.356;-0.196;2023-02-13T02:18:55;102751.11;;;23.58;24.58
63916;BME280;50094;51.356;-0.196;2023-02-13T02:21:42;102750.54;;;23.60;24.55
63916;BME280;50094;51.356;-0.196;2023-02-13T02:25:27;102751.08;;;23.59;24.54
63916;BME280;50094;51.356;-0.196;2023-02-13T02:29:53;102746.58;;;23.58;24.54
63916;BME280;50094;51.356;-0.196;2023-02-13T02:32:32;102740.32;;;23.57;24.56
63916;BME280;50094;51.356;-0.196;2023-02-13T02:35:11;102737.61;;;23.56;24.54
63916;BME280;50094;51.356;-0.196;2023-02-13T02:37:56;102742.72;;;23.59;24.52
63916;BME280;50094;51.356;-0.196;2023-02-13T02:40:35;102744.44;;;23.58;24.53
63916;BME280;50094;51.356;-0.196;2023-02-13T02:43:13;102742.05;;;23.36;24.51
63916;BME280;50094;51.356;-0.196;2023-02-13T02:45:51;102742.29;;;23.12;24.50
63916;BME280;50094;51.356;-0.196;2023-02-13T02:48:25;102740.03;;;23.52;24.50
63916;BME280;50094;51.356;-0.196;2023-02-13T02:50:59;102737.44;;;23.50;24.52
63916;BME280;50094;51.356;-0.196;2023-02-13T02:53:35;102739.07;;;23.28;24.52
63916;BME280;50094;51.356;-0.196;2023-02-13T02:56:09;102736.81;;;23.49;24.52
63916;BME280;50094;51.356;-0.196;2023-02-13T02:58:40;102736.13;;;23.76;24.51
63916;BME280;50094;51.356;-0.196;2023-02-13T03:01:12;102732.56;;;23.49;24.51
63916;BME280;50094;51.356;-0.196;2023-02-13T03:03:41;102736.04;;;23.46;24.52
63916;BME280;50094;51.356;-0.196;2023-02-13T03:06:12;102739.51;;;23.46;24.51
63916;BME280;50094;51.356;-0.196;2023-02-13T03:08:44;102738.47;;;23.03;24.50
63916;BME280;50094;51.356;-0.196;2023-02-13T03:11:12;102738.07;;;23.47;24.50
63916;BME280;50094;51.356;-0.196;2023-02-13T03:13:42;102739.64;;;23.46;24.49
63916;BME280;50094;51.356;-0.196;2023-02-13T03:16:12;102738.88;;;23.43;24.49
63916;BME280;50094;51.356;-0.196;2023-02-13T03:18:43;102738.61;;;23.43;24.48
63916;BME280;50094;51.356;-0.196;2023-02-13T03:21:16;102736.57;;;23.43;24.48
63916;BME280;50094;51.356;-0.196;2023-02-13T03:23:48;102735.09;;;23.39;24.48
63916;BME280;50094;51.356;-0.196;2023-02-13T03:26:31;102731.25;;;23.41;24.47
63916;BME280;50094;51.356;-0.196;2023-02-13T03:29:10;102734.15;;;23.41;24.47
63916;BME280;50094;51.356;-0.196;2023-02-13T03:31:47;102732.61;;;23.41;24.45
63916;BME280;50094;51.356;-0.196;2023-02-13T03:34:21;102730.40;;;23.40;24.45
63916;BME280;50094;51.356;-0.196;2023-02-13T03:36:57;102727.74;;;23.63;24.45
63916;BME280;50094;51.356;-0.196;2023-02-13T03:39:34;102723.50;;;23.38;24.45
63916;BME280;50094;51.356;-0.196;2023-02-13T03:42:09;102724.82;;;23.23;24.42
63916;BME280;50094;51.356;-0.196;2023-02-13T03:44:40;102722.41;;;23.44;24.41
63916;BME280;50094;51.356;-0.196;2023-02-13T03:47:10;102721.58;;;23.19;24.40
63916;BME280;50094;51.356;-0.196;2023-02-13T03:49:42;102718.96;;;23.17;24.39
63916;BME280;50094;51.356;-0.196;2023-02-13T03:52:17;102719.59;;;23.36;24.40
63916;BME280;50094;51.356;-0.196;2023-02-13T03:54:50;102716.04;;;23.36;24.38
63916;BME280;50094;51.356;-0.196;2023-02-13T03:57:20;102713.18;;;23.33;24.38
63916;BME280;50094;51.356;-0.196;2023-02-13T03:59:50;102711.04;;;23.30;24.40
63916;BME280;50094;51.356;-0.196;2023-02-13T04:02:21;102712.03;;;23.59;24.39
63916;BME280;50094;51.356;-0.196;2023-02-13T04:04:54;102710.57;;;23.58;24.37
63916;BME280;50094;51.356;-0.196;2023-02-13T04:07:26;102708.87;;;23.33;24.36
63916;BME280;50094;51.356;-0.196;2023-02-13T04:09:54;102712.61;;;23.58;24.36
63916;BME280;50094;51.356;-0.196;2023-02-13T04:12:27;102715.76;;;23.09;24.35
63916;BME280;50094;51.356;-0.196;2023-02-13T04:15:00;102715.33;;;23.55;24.35
63916;BME280;50094;51.356;-0.196;2023-02-13T04:17:32;102713.39;;;23.29;24.34
63916;BME280;50094;51.356;-0.196;2023-02-13T04:20:03;102714.14;;;23.29;24.33
63916;BME280;50094;51.356;-0.196;2023-02-13T04:22:30;102716.28;;;23.29;24.32
63916;BME280;50094;51.356;-0.196;2023-02-13T04:24:57;102717.85;;;23.25;24.33
63916;BME280;50094;51.356;-0.196;2023-02-13T04:27:27;102718.00;;;23.25;24.32
63916;BME280;50094;51.356;-0.196;2023-02-13T04:29:54;102716.19;;;23.25;24.32
63916;BME280;50094;51.356;-0.196;2023-02-13T04:32:21;102713.25;;;23.22;24.32
63916;BME280;50094;51.356;-0.196;2023-02-13T04:34:49;102711.95;;;23.18;24.32
63916;BME280;50094;51.356;-0.196;2023-02-13T04:37:16;102708.45;;;23.18;24.31
63916;BME280;50094;51.356;-0.196;2023-02-13T04:39:43;102712.61;;;23.43;24.32
63916;BME280;50094;51.356;-0.196;2023-02-13T04:42:10;102712.81;;;23.41;24.32
63916;BME280;50094;51.356;-0.196;2023-02-13T04:44:37;102710.20;;;23.14;24.31
63916;BME280;50094;51.356;-0.196;2023-02-13T04:47:04;102711.41;;;23.40;24.31
63916;BME280;50094;51.356;-0.196;2023-02-13T04:49:31;102708.84;;;23.13;24.31
63916;BME280;50094;51.356;-0.196;2023-02-13T04:51:58;102706.20;;;23.11;24.32
63916;BME280;50094;51.356;-0.196;2023-02-13T04:54:26;102707.84;;;23.58;24.29
63916;BME280;50094;51.356;-0.196;2023-02-13T04:56:53;102708.75;;;23.35;24.29
63916;BME280;50094;51.356;-0.196;2023-02-13T04:59:19;102712.22;;;23.07;24.29
63916;BME280;50094;51.356;-0.196;2023-02-13T05:01:47;102712.81;;;23.07;24.29
63916;BME280;50094;51.356;-0.196;2023-02-13T05:04:14;102710.34;;;23.32;24.29
63916;BME280;50094;51.356;-0.196;2023-02-13T05:06:41;102712.80;;;23.07;24.27
63916;BME280;50094;51.356;-0.196;2023-02-13T05:09:09;102707.25;;;23.06;24.27
63916;BME280;50094;51.356;-0.196;2023-02-13T05:11:37;102707.55;;;23.29;24.27
63916;BME280;50094;51.356;-0.196;2023-02-13T05:14:04;102703.76;;;22.98;24.27
63916;BME280;50094;51.356;-0.196;2023-02-13T05:16:31;102703.04;;;23.00;24.27
63916;BME280;50094;51.356;-0.196;2023-02-13T05:18:58;102696.24;;;23.04;24.24
63916;BME280;50094;51.356;-0.196;2023-02-13T05:21:25;102694.27;;;23.51;24.24
63916;BME280;50094;51.356;-0.196;2023-02-13T05:23:53;102693.22;;;23.02;24.23
63916;BME280;50094;51.356;-0.196;2023-02-13T05:26:20;102691.73;;;22.99;24.23
63916;BME280;50094;51.356;-0.196;2023-02-13T05:28:48;102692.57;;;23.01;24.22
63916;BME280;50094;51.356;-0.196;2023-02-13T05:31:15;102689.12;;;23.01;24.21
63916;BME280;50094;51.356;-0.196;2023-02-13T05:33:42;102686.25;;;23.31;24.19
63916;BME280;50094;51.356;-0.196;2023-02-13T05:36:10;102686.35;;;23.05;24.19
63916;BME280;50094;51.356;-0.196;2023-02-13T05:38:37;102684.29;;;23.48;24.24
63916;BME280;50094;51.356;-0.196;2023-02-13T05:41:04;102683.02;;;22.97;24.28
63916;BME280;50094;51.356;-0.196;2023-02-13T05:43:31;102684.76;;;23.00;24.35
63916;BME280;50094;51.356;-0.196;2023-02-13T05:46:01;102682.57;;;23.05;24.40
63916;BME280;50094;51.356;-0.196;2023-02-13T05:48:29;102682.05;;;23.37;24.44
63916;BME280;50094;51.356;-0.196;2023-02-13T05:50:56;102683.56;;;23.19;24.47
63916;BME280;50094;51.356;-0.196;2023-02-13T05:53:23;102684.73;;;23.26;24.49
63916;BME280;50094;51.356;-0.196;2023-02-13T05:55:50;102684.06;;;23.31;24.51
63916;BME280;50094;51.356;-0.196;2023-02-13T05:58:17;102685.20;;;23.35;24.54
63916;BME280;50094;51.356;-0.196;2023-02-13T06:00:45;102685.33;;;23.67;24.54
63916;BME280;50094;51.356;-0.196;2023-02-13T06:03:13;102686.15;;;23.22;24.55
63916;BME280;50094;51.356;-0.196;2023-02-13T06:05:40;102679.30;;;23.50;24.55
63916;BME280;50094;51.356;-0.196;2023-02-13T06:08:07;102677.72;;;23.52;24.56
63916;BME280;50094;51.356;-0.196;2023-02-13T06:10:34;102679.22;;;23.61;24.55
63916;BME280;50094;51.356;-0.196;2023-02-13T06:13:01;102678.52;;;23.41;24.55
63916;BME280;50094;51.356;-0.196;2023-02-13T06:15:28;102681.10;;;23.64;24.54
63916;BME280;50094;51.356;-0.196;2023-02-13T06:17:55;102681.43;;;23.64;24.51
63916;BME280;50094;51.356;-0.196;2023-02-13T06:20:22;102679.67;;;23.64;24.51
63916;BME280;50094;51.356;-0.196;2023-02-13T06:22:49;102677.78;;;23.67;24.48
63916;BME280;50094;51.356;-0.196;2023-02-13T06:25:18;102675.99;;;23.25;24.43
63916;BME280;50094;51.356;-0.196;2023-02-13T06:27:45;102677.43;;;23.54;24.39
63916;BME280;50094;51.356;-0.196;2023-02-13T06:30:14;102676.51;;;23.73;24.37
63916;BME280;50094;51.356;-0.196;2023-02-13T06:32:41;102673.15;;;23.49;24.33
63916;BME280;50094;51.356;-0.196;2023-02-13T06:35:09;102670.86;;;23.46;24.28
63916;BME280;50094;51.356;-0.196;2023-02-13T06:37:35;102672.72;;;23.67;24.23
63916;BME280;50094;51.356;-0.196;2023-02-13T06:40:03;102678.59;;;23.66;24.19
63916;BME280;50094;51.356;-0.196;2023-02-13T06:42:30;102681.72;;;23.21;24.15
63916;BME280;50094;51.356;-0.196;2023-02-13T06:44:57;102682.48;;;23.70;24.11
63916;BME280;50094;51.356;-0.196;2023-02-13T06:47:24;102681.35;;;23.25;24.06
63916;BME280;50094;51.356;-0.196;2023-02-13T06:49:51;102686.56;;;23.45;24.03
63916;BME280;50094;51.356;-0.196;2023-02-13T06:52:18;102689.27;;;23.21;24.00
63916;BME280;50094;51.356;-0.196;2023-02-13T06:54:45;102693.89;;;23.66;23.95
63916;BME280;50094;51.356;-0.196;2023-02-13T06:57:12;102692.57;;;23.66;23.91
63916;BME280;50094;51.356;-0.196;2023-02-13T06:59:39;102690.51;;;23.64;23.86
63916;BME280;50094;51.356;-0.196;2023-02-13T07:02:08;102688.09;;;23.60;23.83
63916;BME280;50094;51.356;-0.196;2023-02-13T07:04:35;102686.69;;;23.59;23.80
63916;BME280;50094;51.356;-0.196;2023-02-13T07:07:02;102685.00;;;23.51;23.78
63916;BME280;50094;51.356;-0.196;2023-02-13T07:09:30;102684.42;;;23.48;23.75
63916;BME280;50094;51.356;-0.196;2023-02-13T07:11:57;102686.37;;;23.50;23.72
63916;BME280;50094;51.356;-0.196;2023-02-13T07:14:25;102690.40;;;23.45;23.73
63916;BME280;50094;51.356;-0.196;2023-02-13T07:16:52;102691.55;;;23.43;23.72
63916;BME280;50094;51.356;-0.196;2023-02-13T07:19:20;102696.52;;;23.38;23.72
63916;BME280;50094;51.356;-0.196;2023-02-13T07:21:46;102699.84;;;23.59;23.72
63916;BME280;50094;51.356;-0.196;2023-02-13T07:24:14;102699.82;;;23.30;23.73
63916;BME280;50094;51.356;-0.196;2023-02-13T07:26:41;102699.27;;;23.26;23.71
63916;BME280;50094;51.356;-0.196;2023-02-13T07:29:08;102700.62;;;23.54;23.69
63916;BME280;50094;51.356;-0.196;2023-02-13T07:31:35;102699.06;;;23.22;23.70
63916;BME280;50094;51.356;-0.196;2023-02-13T07:34:02;102701.11;;;23.20;23.70
63916;BME280;50094;51.356;-0.196;2023-02-13T07:36:29;102705.35;;;23.18;23.71
63916;BME280;50094;51.356;-0.196;2023-02-13T07:38:57;102704.98;;;23.15;23.71
63916;BME280;50094;51.356;-0.196;2023-02-13T07:41:25;102709.50;;;23.37;23.72
63916;BME280;50094;51.356;-0.196;2023-02-13T07:43:52;102710.68;;;23.13;23.73
63916;BME280;50094;51.356;-0.196;2023-02-13T07:46:20;102709.04;;;23.13;23.73
63916;BME280;50094;51.356;-0.196;2023-02-13T07:48:47;102708.90;;;23.18;23.70
63916;BME280;50094;51.356;-0.196;2023-02-13T07:51:14;102710.40;;;23.10;23.72
63916;BME280;50094;51.356;-0.196;2023-02-13T07:53:42;102709.42;;;23.37;23.71
63916;BME280;50094;51.356;-0.196;2023-02-13T07:56:10;102708.55;;;23.06;23.72
63916;BME280;50094;51.356;-0.196;2023-02-13T07:58:37;102702.89;;;23.06;23.73
63916;BME280;50094;51.356;-0.196;2023-02-13T08:01:06;102700.16;;;23.29;23.74
63916;BME280;50094;51.356;-0.196;2023-02-13T08:03:34;102700.35;;;23.30;23.72
63916;BME280;50094;51.356;-0.196;2023-02-13T08:06:01;102696.18;;;23.00;23.72
63916;BME280;50094;51.356;-0.196;2023-02-13T08:08:28;102697.42;;;23.22;23.72
63916;BME280;50094;51.356;-0.196;2023-02-13T08:11:01;102692.16;;;22.96;23.73
63916;BME280;50094;51.356;-0.196;2023-02-13T08:13:29;102692.42;;;22.94;23.73
63916;BME280;50094;51.356;-0.196;2023-02-13T08:15:56;102690.30;;;22.93;23.74
63916;BME280;50094;51.356;-0.196;2023-02-13T08:18:23;102688.06;;;23.39;23.74
63916;BME280;50094;51.356;-0.196;2023-02-13T08:20:50;102689.68;;;22.94;23.74
63916;BME280;50094;51.356;-0.196;2023-02-13T08:23:17;102689.82;;;23.19;23.74
63916;BME280;50094;51.356;-0.196;2023-02-13T08:25:45;102686.34;;;23.17;23.74
63916;BME280;50094;51.356;-0.196;2023-02-13T08:28:12;102684.44;;;22.87;23.75
63916;BME280;50094;51.356;-0.196;2023-02-13T08:30:40;102685.93;;;23.12;23.76
63916;BME280;50094;51.356;-0.196;2023-02-13T08:33:07;102687.45;;;23.14;23.78
63916;BME280;50094;51.356;-0.196;2023-02-13T08:35:34;102687.38;;;22.87;23.80
63916;BME280;50094;51.356;-0.196;2023-02-13T08:38:02;102684.91;;;22.87;23.82
63916;BME280;50094;51.356;-0.196;2023-02-13T08:40:29;102682.19;;;23.14;23.83
63916;BME280;50094;51.356;-0.196;2023-02-13T08:42:59;102680.37;;;23.15;23.83
63916;BME280;50094;51.356;-0.196;2023-02-13T08:45:27;102676.87;;;23.15;23.83
63916;BME280;50094;51.356;-0.196;2023-02-13T08:47:55;102675.36;;;23.13;23.85
63916;BME280;50094;51.356;-0.196;2023-02-13T08:50:22;102676.87;;;23.10;23.86
63916;BME280;50094;51.356;-0.196;2023-02-13T08:52:50;102679.18;;;23.11;23.87
63916;BME280;50094;51.356;-0.196;2023-02-13T08:55:17;102676.44;;;23.10;23.89
63916;BME280;50094;51.356;-0.196;2023-02-13T08:57:44;102673.27;;;22.81;23.91
63916;BME280;50094;51.356;-0.196;2023-02-13T09:00:12;102678.94;;;23.31;23.93
63916;BME280;50094;51.356;-0.196;2023-02-13T09:02:39;102681.55;;;23.09;23.94
63916;BME280;50094;51.356;-0.196;2023-02-13T09:05:07;102678.46;;;22.79;23.97
63916;BME280;50094;51.356;-0.196;2023-02-13T09:07:34;102677.21;;;23.08;23.98
63916;BME280;50094;51.356;-0.196;2023-02-13T09:10:01;102677.72;;;23.08;24.00
63916;BME280;50094;51.356;-0.196;2023-02-13T09:12:28;102671.84;;;22.82;24.02
63916;BME280;50094;51.356;-0.196;2023-02-13T09:14:55;102668.99;;;23.11;24.05
63916;BME280;50094;51.356;-0.196;2023-02-13T09:17:22;102666.61;;;23.12;24.07
63916;BME280;50094;51.356;-0.196;2023-02-13T09:19:49;102663.98;;;22.90;24.08
63916;BME280;50094;51.356;-0.196;2023-02-13T09:22:16;102663.17;;;22.95;24.09
63916;BME280;50094;51.356;-0.196;2023-02-13T09:24:43;102663.77;;;22.98;24.10
63916;BME280;50094;51.356;-0.196;2023-02-13T09:27:10;102655.63;;;23.02;24.11
63916;BME280;50094;51.356;-0.196;2023-02-13T09:29:37;102651.28;;;23.05;24.13
63916;BME280;50094;51.356;-0.196;2023-02-13T09:32:04;102650.97;;;23.06;24.16
63916;BME280;50094;51.356;-0.196;2023-02-13T09:34:31;102650.26;;;23.10;24.16
63916;BME280;50094;51.356;-0.196;2023-02-13T09:36:58;102651.70;;;23.08;24.19
63916;BME280;50094;51.356;-0.196;2023-02-13T09:39:26;102648.54;;;23.39;24.21
63916;BME280;50094;51.356;-0.196;2023-02-13T09:41:53;102646.33;;;23.15;24.22
63916;BME280;50094;51.356;-0.196;2023-02-13T09:44:28;102642.75;;;23.16;24.23
63916;BME280;50094;51.356;-0.196;2023-02-13T09:46:56;102647.80;;;23.01;24.24
63916;BME280;50094;51.356;-0.196;2023-02-13T09:49:26;102643.56;;;23.24;24.25
63916;BME280;50094;51.356;-0.196;2023-02-13T09:51:57;102643.91;;;23.27;24.24
63916;BME280;50094;51.356;-0.196;2023-02-13T09:54:24;102643.99;;;23.53;24.25
63916;BME280;50094;51.356;-0.196;2023-02-13T09:56:56;102641.49;;;23.57;24.23
63916;BME280;50094;51.356;-0.196;2023-02-13T09:59:34;102645.27;;;23.27;24.25
63916;BME280;50094;51.356;-0.196;2023-02-13T10:02:19;102643.37;;;23.26;24.26
63916;BME280;50094;51.356;-0.196;2023-02-13T10:04:56;102644.02;;;23.26;24.28
63916;BME280;50094;51.356;-0.196;2023-02-13T10:07:30;102646.69;;;23.26;24.28
63916;BME280;50094;51.356;-0.196;2023-02-13T10:10:10;102646.98;;;22.99;24.30
63916;BME280;50094;51.356;-0.196;2023-02-13T10:12:55;102651.04;;;23.37;24.28
63916;BME280;50094;51.356;-0.196;2023-02-13T10:15:30;102649.19;;;23.41;24.27
63916;BME280;50094;51.356;-0.196;2023-02-13T10:18:04;102651.54;;;23.18;24.27
63916;BME280;50094;51.356;-0.196;2023-02-13T10:20:36;102649.84;;;23.41;24.27
63916;BME280;50094;51.356;-0.196;2023-02-13T10:23:15;102651.90;;;23.41;24.26
63916;BME280;50094;51.356;-0.196;2023-02-13T10:25:48;102654.57;;;23.44;24.25
63916;BME280;50094;51.356;-0.196;2023-02-13T10:28:27;102655.94;;;23.43;24.25
63916;BME280;50094;51.356;-0.196;2023-02-13T10:31:01;102656.11;;;23.21;24.24
63916;BME280;50094;51.356;-0.196;2023-02-13T10:33:32;102658.99;;;23.45;24.24
63916;BME280;50094;51.356;-0.196;2023-02-13T10:36:04;102660.35;;;23.44;24.23
63916;BME280;50094;51.356;-0.196;2023-02-13T10:38:37;102658.37;;;23.41;24.24
63916;BME280;50094;51.356;-0.196;2023-02-13T10:41:21;102660.19;;;23.46;24.25
63916;BME280;50094;51.356;-0.196;2023-02-13T10:44:00;102661.36;;;23.47;24.25
63916;BME280;50094;51.356;-0.196;2023-02-13T10:46:38;102661.21;;;23.73;24.25
63916;BME280;50094;51.356;-0.196;2023-02-13T10:49:23;102660.58;;;23.27;24.25
63916;BME280;50094;51.356;-0.196;2023-02-13T10:52:00;102664.93;;;23.50;24.25
63916;BME280;50094;51.356;-0.196;2023-02-13T10:54:51;102665.99;;;23.47;24.25
63916;BME280;50094;51.356;-0.196;2023-02-13T10:57:29;102669.42;;;23.78;24.25
63916;BME280;50094;51.356;-0.196;2023-02-13T11:00:07;102668.78;;;23.52;24.25
63916;BME280;50094;51.356;-0.196;2023-02-13T11:02:36;102670.84;;;23.28;24.26
63916;BME280;50094;51.356;-0.196;2023-02-13T11:05:15;102666.35;;;23.49;24.26
63916;BME280;50094;51.356;-0.196;2023-02-13T11:07:44;102665.85;;;23.49;24.26
63916;BME280;50094;51.356;-0.196;2023-02-13T11:10:15;102665.44;;;23.49;24.27
63916;BME280;50094;51.356;-0.196;2023-02-13T11:12:43;102664.59;;;23.26;24.27
63916;BME280;50094;51.356;-0.196;2023-02-13T11:15:21;102657.80;;;23.28;24.26
63916;BME280;50094;51.356;-0.196;2023-02-13T11:17:50;102658.96;;;23.47;24.28
63916;BME280;50094;51.356;-0.196;2023-02-13T11:20:27;102664.70;;;23.45;24.29
63916;BME280;50094;51.356;-0.196;2023-02-13T11:23:14;102661.43;;;23.45;24.29
63916;BME280;50094;51.356;-0.196;2023-02-13T11:25:53;102661.34;;;23.46;24.29
63916;BME280;50094;51.356;-0.196;2023-02-13T11:28:22;102659.11;;;23.43;24.31
63916;BME280;50094;51.356;-0.196;2023-02-13T11:30:49;102654.37;;;23.43;24.32
63916;BME280;50094;51.356;-0.196;2023-02-13T11:33:21;102648.85;;;23.42;24.33
63916;BME280;50094;51.356;-0.196;2023-02-13T11:35:49;102643.62;;;23.37;24.36
63916;BME280;50094;51.356;-0.196;2023-02-13T11:38:30;102645.62;;;23.41;24.37
63916;BME280;50094;51.356;-0.196;2023-02-13T11:41:05;102644.58;;;23.38;24.37
63916;BME280;50094;51.356;-0.196;2023-02-13T11:43:35;102642.15;;;23.40;24.38
63916;BME280;50094;51.356;-0.196;2023-02-13T11:46:05;102637.41;;;23.38;24.38
63916;BME280;50094;51.356;-0.196;2023-02-13T11:48:33;102633.17;;;23.42;24.38
63916;BME280;50094;51.356;-0.196;2023-02-13T11:51:01;102631.13;;;23.45;24.36
63916;BME280;50094;51.356;-0.196;2023-02-13T11:53:34;102621.82;;;23.42;24.38
63916;BME280;50094;51.356;-0.196;2023-02-13T11:56:07;102615.34;;;23.36;24.38
63916;BME280;50094;51.356;-0.196;2023-02-13T11:58:35;102613.28;;;23.33;24.40
63916;BME280;50094;51.356;-0.196;2023-02-13T12:01:19;102612.09;;;23.29;24.42
63916;BME280;50094;51.356;-0.196;2023-02-13T12:03:59;102610.14;;;23.38;24.41
63916;BME280;50094;51.356;-0.196;2023-02-13T12:06:27;102608.86;;;23.40;24.42
63916;BME280;50094;51.356;-0.196;2023-02-13T12:08:54;102606.77;;;23.32;24.43
63916;BME280;50094;51.356;-0.196;2023-02-13T12:11:26;102607.62;;;23.33;24.44
63916;BME280;50094;51.356;-0.196;2023-02-13T12:13:56;102606.86;;;23.38;24.44
63916;BME280;50094;51.356;-0.196;2023-02-13T12:16:29;102600.60;;;23.35;24.46
63916;BME280;50094;51.356;-0.196;2023-02-13T12:18:59;102602.20;;;23.39;24.44
63916;BME280;50094;51.356;-0.196;2023-02-13T12:21:39;102597.48;;;23.12;24.46
63916;BME280;50094;51.356;-0.196;2023-02-13T12:24:15;102593.19;;;23.31;24.47
63916;BME280;50094;51.356;-0.196;2023-02-13T12:26:52;102592.56;;;23.59;24.48
63916;BME280;50094;51.356;-0.196;2023-02-13T12:29:41;102587.00;;;23.14;24.47
63916;BME280;50094;51.356;-0.196;2023-02-13T12:32:18;102586.59;;;23.40;24.47
63916;BME280;50094;51.356;-0.196;2023-02-13T12:34:56;102579.77;;;23.40;24.47
63916;BME280;50094;51.356;-0.196;2023-02-13T12:37:38;102578.09;;;23.39;24.47
63916;BME280;50094;51.356;-0.196;2023-02-13T12:40:25;102575.74;;;23.40;24.47
63916;BME280;50094;51.356;-0.196;2023-02-13T12:43:07;102577.84;;;23.19;24.48
63916;BME280;50094;51.356;-0.196;2023-02-13T12:45:43;102569.85;;;23.31;24.50
63916;BME280;50094;51.356;-0.196;2023-02-13T12:48:22;102567.45;;;23.33;24.51
63916;BME280;50094;51.356;-0.196;2023-02-13T12:51:01;102566.95;;;23.28;24.53
63916;BME280;50094;51.356;-0.196;2023-02-13T12:53:46;102565.14;;;23.06;24.56
63916;BME280;50094;51.356;-0.196;2023-02-13T12:56:28;102562.81;;;23.25;24.58
63916;BME280;50094;51.356;-0.196;2023-02-13T12:59:08;102562.45;;;23.26;24.59